createdAt,value
2022-08-18T00:01:14.435Z,19.56
2022-08-18T00:03:57.023Z,19.53
2022-08-18T00:06:30.899Z,19.49
2022-08-18T00:09:01.134Z,19.46
2022-08-18T00:11:41.504Z,19.41
2022-08-18T00:14:21.607Z,19.37
2022-08-18T00:16:52.879Z,19.35
2022-08-18T00:19:47.129Z,19.31
2022-08-18T00:22:14.655Z,19.26
2022-08-18T00:24:48.129Z,19.23
2022-08-18T00:27:21.581Z,19.22
2022-08-18T00:29:50.358Z,19.22
2022-08-18T00:32:21.055Z,19.22
2022-08-18T00:34:50.389Z,19.21
2022-08-18T00:37:18.459Z,19.22
2022-08-18T00:39:48.122Z,19.22
2022-08-18T00:42:29.891Z,19.19
2022-08-18T00:45:02.840Z,19.18
2022-08-18T00:47:42.507Z,19.17
2022-08-18T00:50:23.815Z,19.15
2022-08-18T00:52:56.559Z,19.14
2022-08-18T00:55:25.610Z,19.12
2022-08-18T00:58:01.351Z,19.10
2022-08-18T01:00:29.817Z,19.09
2022-08-18T01:03:01.432Z,19.08
2022-08-18T01:05:40.840Z,19.07
2022-08-18T01:08:14.381Z,19.07
2022-08-18T01:10:43.149Z,19.09
2022-08-18T01:13:11.895Z,19.10
2022-08-18T01:15:40.372Z,19.10
2022-08-18T01:18:30.236Z,19.09
2022-08-18T01:21:24.166Z,19.08
2022-08-18T01:23:55.711Z,19.08
2022-08-18T01:26:26.289Z,19.09
2022-08-18T01:28:54.326Z,19.10
2022-08-18T01:31:37.892Z,19.12
2022-08-18T01:34:07.157Z,19.11
2022-08-18T01:36:37.469Z,19.09
2022-08-18T01:39:08.876Z,19.08
2022-08-18T01:41:36.946Z,19.04
2022-08-18T01:44:05.675Z,18.97
2022-08-18T01:46:36.632Z,18.94
2022-08-18T01:49:05.598Z,18.92
2022-08-18T01:51:40.408Z,18.89
2022-08-18T01:54:12.944Z,18.87
2022-08-18T01:56:43.117Z,18.86
2022-08-18T01:59:14.620Z,18.83
2022-08-18T02:01:50.688Z,18.82
2022-08-18T02:04:41.333Z,18.81
2022-08-18T02:07:11.432Z,18.77
2022-08-18T02:09:42.528Z,18.72
2022-08-18T02:12:12.022Z,18.69
2022-08-18T02:14:40.776Z,18.63
2022-08-18T02:17:11.047Z,18.59
2022-08-18T02:19:41.154Z,18.55
2022-08-18T02:22:10.276Z,18.50
2022-08-18T02:24:38.935Z,18.47
2022-08-18T02:27:10.055Z,18.43
2022-08-18T02:29:38.338Z,18.40
2022-08-18T02:32:07.423Z,18.42
2022-08-18T02:34:35.793Z,18.44
2022-08-18T02:37:04.377Z,18.47
2022-08-18T02:39:35.282Z,18.51
2022-08-18T02:42:03.255Z,18.54
2022-08-18T02:44:33.494Z,18.56
2022-08-18T02:47:02.248Z,18.54
2022-08-18T02:49:30.178Z,18.50
2022-08-18T02:51:58.168Z,18.44
2022-08-18T02:54:26.517Z,18.39
2022-08-18T02:56:54.681Z,18.37
2022-08-18T02:59:24.303Z,18.32
2022-08-18T03:01:56.423Z,18.28
2022-08-18T03:04:29.611Z,18.22
2022-08-18T03:07:00.270Z,18.19
2022-08-18T03:09:29.314Z,18.16
2022-08-18T03:11:57.309Z,18.12
2022-08-18T03:14:25.682Z,18.12
2022-08-18T03:16:55.456Z,18.09
2022-08-18T03:19:24.717Z,18.07
2022-08-18T03:21:53.259Z,18.06
2022-08-18T03:24:22.761Z,18.03
2022-08-18T03:26:53.030Z,18.01
2022-08-18T03:29:21.151Z,17.96
2022-08-18T03:31:49.164Z,17.92
2022-08-18T03:34:20.666Z,17.90
2022-08-18T03:36:50.000Z,17.90
2022-08-18T03:39:20.126Z,17.91
2022-08-18T03:41:59.721Z,17.91
2022-08-18T03:44:30.738Z,17.89
2022-08-18T03:46:59.427Z,17.87
2022-08-18T03:49:28.882Z,17.86
2022-08-18T03:52:00.163Z,17.85
2022-08-18T03:54:28.709Z,17.87
2022-08-18T03:56:56.657Z,17.87
2022-08-18T03:59:27.052Z,17.88
2022-08-18T04:01:56.019Z,17.87
2022-08-18T04:04:27.712Z,17.88
2022-08-18T04:06:59.455Z,17.88
2022-08-18T04:09:30.820Z,17.90
2022-08-18T04:12:03.874Z,17.91
2022-08-18T04:14:34.891Z,17.96
2022-08-18T04:17:02.806Z,18.02
2022-08-18T04:19:34.503Z,18.05
2022-08-18T04:22:05.214Z,18.07
2022-08-18T04:24:34.688Z,18.10
2022-08-18T04:27:05.863Z,18.07
2022-08-18T04:29:33.833Z,18.08
2022-08-18T04:32:04.948Z,18.08
2022-08-18T04:34:34.075Z,18.08
2022-08-18T04:37:03.893Z,18.07
2022-08-18T04:39:33.150Z,18.07
2022-08-18T04:42:03.647Z,18.11
2022-08-18T04:44:31.905Z,18.13
2022-08-18T04:47:01.741Z,18.16
2022-08-18T04:49:31.575Z,18.20
2022-08-18T04:52:30.982Z,18.22
2022-08-18T04:55:08.493Z,18.23
2022-08-18T04:57:36.712Z,18.21
2022-08-18T05:00:08.331Z,18.21
2022-08-18T05:02:36.289Z,18.20
2022-08-18T05:05:04.883Z,18.21
2022-08-18T05:07:33.459Z,18.22
2022-08-18T05:10:01.658Z,18.23
2022-08-18T05:12:31.096Z,18.24
2022-08-18T05:14:59.272Z,18.26
2022-08-18T05:17:30.543Z,18.27
2022-08-18T05:20:00.167Z,18.27
2022-08-18T05:22:31.134Z,18.25
2022-08-18T05:25:00.068Z,18.26
2022-08-18T05:27:35.276Z,18.27
2022-08-18T05:30:04.023Z,18.29
2022-08-18T05:32:46.597Z,18.31
2022-08-18T05:35:23.306Z,18.34
2022-08-18T05:38:17.533Z,18.38
2022-08-18T05:40:48.116Z,18.39
2022-08-18T05:43:18.246Z,18.39
2022-08-18T05:45:46.243Z,18.41
2022-08-18T05:48:15.523Z,18.43
2022-08-18T05:50:44.271Z,18.44
2022-08-18T05:53:16.235Z,18.46
2022-08-18T05:56:09.476Z,18.50
2022-08-18T05:58:44.056Z,18.49
2022-08-18T06:01:23.524Z,18.48
2022-08-18T06:03:55.165Z,18.47
2022-08-18T06:06:27.931Z,18.46
2022-08-18T06:09:03.204Z,18.47
2022-08-18T06:11:31.124Z,18.48
2022-08-18T06:14:01.408Z,18.52
2022-08-18T06:16:44.563Z,18.57
2022-08-18T06:19:29.783Z,18.65
2022-08-18T06:22:10.478Z,18.72
2022-08-18T06:24:47.155Z,18.78
2022-08-18T06:27:24.248Z,18.85
2022-08-18T06:30:05.366Z,18.89
2022-08-18T06:32:48.933Z,18.93
2022-08-18T06:35:26.533Z,18.95
2022-08-18T06:38:20.605Z,18.96
2022-08-18T06:40:48.839Z,18.94
2022-08-18T06:43:19.686Z,18.89
2022-08-18T06:45:53.041Z,18.89
2022-08-18T06:48:31.217Z,18.99
2022-08-18T06:51:02.540Z,19.12
2022-08-18T06:53:52.578Z,19.23
2022-08-18T06:56:27.377Z,19.26
2022-08-18T06:58:55.991Z,19.29
2022-08-18T07:01:26.299Z,19.28
2022-08-18T07:03:57.335Z,19.22
2022-08-18T07:06:30.218Z,19.14
2022-08-18T07:09:22.799Z,19.08
2022-08-18T07:12:03.697Z,18.99
2022-08-18T07:14:32.580Z,18.93
2022-08-18T07:17:13.705Z,18.94
2022-08-18T07:19:42.666Z,19.00
2022-08-18T07:22:14.703Z,19.04
2022-08-18T07:24:47.499Z,19.08
2022-08-18T07:27:17.577Z,19.10
2022-08-18T07:30:03.409Z,19.19
2022-08-18T07:32:37.462Z,19.29
2022-08-18T07:35:09.605Z,19.42
2022-08-18T07:37:45.967Z,19.54
2022-08-18T07:40:23.512Z,19.58
2022-08-18T07:43:01.207Z,19.70
2022-08-18T07:45:36.187Z,19.82
2022-08-18T07:48:34.657Z,19.96
2022-08-18T07:51:08.523Z,19.88
2022-08-18T07:53:55.986Z,19.89
2022-08-18T07:56:33.815Z,19.86
2022-08-18T07:59:08.186Z,19.81
2022-08-18T08:01:45.073Z,19.81
2022-08-18T08:04:26.276Z,19.85
2022-08-18T08:07:22.779Z,19.89
2022-08-18T08:09:58.317Z,19.93
2022-08-18T08:12:37.260Z,19.95
2022-08-18T08:15:14.701Z,19.93
2022-08-18T08:17:54.121Z,19.96
2022-08-18T08:20:32.573Z,19.91
2022-08-18T08:23:15.085Z,19.83
2022-08-18T08:25:53.377Z,19.84
2022-08-18T08:28:35.046Z,19.83
2022-08-18T08:31:33.409Z,19.86
2022-08-18T08:34:06.126Z,19.86
2022-08-18T08:36:39.876Z,19.92
2022-08-18T08:39:13.993Z,19.94
2022-08-18T08:41:44.788Z,19.95
2022-08-18T08:44:21.538Z,19.97
2022-08-18T08:46:56.431Z,19.93
2022-08-18T08:49:33.761Z,19.89
2022-08-18T08:52:08.343Z,19.80
2022-08-18T08:54:44.652Z,19.79
2022-08-18T08:57:15.488Z,19.87
2022-08-18T08:59:47.438Z,19.90
2022-08-18T09:02:48.229Z,19.91
2022-08-18T09:05:21.103Z,20.00
2022-08-18T09:08:12.023Z,20.06
2022-08-18T09:11:31.117Z,20.13
2022-08-18T09:14:44.135Z,20.15
2022-08-18T09:17:33.913Z,20.16
2022-08-18T09:20:29.272Z,20.24
2022-08-18T09:23:07.145Z,20.28
2022-08-18T09:25:47.324Z,20.41
2022-08-18T09:28:18.131Z,20.39
2022-08-18T09:30:51.442Z,20.39
2022-08-18T09:33:34.308Z,20.47
2022-08-18T09:36:28.801Z,20.57
2022-08-18T09:39:23.188Z,20.62
2022-08-18T09:41:55.749Z,20.56
2022-08-18T09:45:04.237Z,20.49
2022-08-18T09:48:04.008Z,20.57
2022-08-18T09:50:39.518Z,20.69
2022-08-18T09:53:34.083Z,20.75
2022-08-18T09:58:58.790Z,20.82
2022-08-18T10:01:38.212Z,20.95
2022-08-18T10:04:36.831Z,21.06
2022-08-18T10:07:43.540Z,21.16
2022-08-18T10:11:02.341Z,21.11
2022-08-18T10:13:25.133Z,20.98
2022-08-18T10:16:12.300Z,20.89
2022-08-18T10:18:54.614Z,20.78
2022-08-18T10:21:31.195Z,20.90
2022-08-18T10:24:34.866Z,21.01
2022-08-18T10:27:05.596Z,20.97
2022-08-18T10:29:57.915Z,20.98
2022-08-18T10:32:52.151Z,20.88
2022-08-18T10:35:57.845Z,20.84
2022-08-18T10:38:53.379Z,20.79
2022-08-18T10:41:27.313Z,20.78
2022-08-18T10:44:01.161Z,20.75
2022-08-18T10:46:36.931Z,20.78
2022-08-18T10:49:21.512Z,20.72
2022-08-18T10:52:26.732Z,20.57
2022-08-18T10:55:23.793Z,20.63
2022-08-18T10:58:14.527Z,20.65
2022-08-18T11:00:57.853Z,20.70
2022-08-18T11:03:51.087Z,20.84
2022-08-18T11:06:23.591Z,20.89
2022-08-18T11:08:57.776Z,20.92
2022-08-18T11:11:34.743Z,20.94
2022-08-18T11:14:16.581Z,21.04
2022-08-18T11:16:54.163Z,21.17
2022-08-18T11:19:24.504Z,21.26
2022-08-18T11:21:54.364Z,21.47
2022-08-18T11:24:26.544Z,21.75
2022-08-18T11:26:56.653Z,22.04
2022-08-18T11:29:32.211Z,22.17
2022-08-18T11:32:05.395Z,22.07
2022-08-18T11:34:45.519Z,21.95
2022-08-18T11:43:29.722Z,21.46
2022-08-18T11:46:00.162Z,21.40
2022-08-18T11:48:51.830Z,21.31
2022-08-18T11:51:25.700Z,21.33
2022-08-18T11:53:59.226Z,21.33
2022-08-18T11:56:31.617Z,21.29
2022-08-18T11:59:02.956Z,21.22
2022-08-18T12:04:26.893Z,21.53
2022-08-18T12:07:04.599Z,21.76
2022-08-18T12:10:16.598Z,21.84
2022-08-18T12:12:30.535Z,21.91
2022-08-18T12:15:07.999Z,21.88
2022-08-18T12:17:44.600Z,21.78
2022-08-18T12:20:20.950Z,21.74
2022-08-18T12:22:50.688Z,21.61
2022-08-18T12:25:25.462Z,21.50
2022-08-18T12:27:53.994Z,21.45
2022-08-18T12:30:22.125Z,21.42
2022-08-18T12:33:01.029Z,21.40
2022-08-18T12:38:24.545Z,21.42
2022-08-18T12:40:53.249Z,21.37
2022-08-18T12:43:21.832Z,21.31
2022-08-18T12:45:50.076Z,21.24
2022-08-18T12:48:18.339Z,21.21
2022-08-18T12:50:58.301Z,21.25
2022-08-18T12:53:58.404Z,21.27
2022-08-18T12:56:24.711Z,21.20
2022-08-18T12:58:53.998Z,21.12
2022-08-18T13:01:23.266Z,21.08
2022-08-18T13:04:10.672Z,20.96
2022-08-18T13:06:45.389Z,20.88
2022-08-18T13:09:35.325Z,20.85
2022-08-18T13:12:14.918Z,20.86
2022-08-18T13:14:44.623Z,20.87
2022-08-18T13:17:29.772Z,20.83
2022-08-18T13:20:01.551Z,20.89
2022-08-18T13:22:32.223Z,20.97
2022-08-18T13:25:02.142Z,20.90
2022-08-18T13:27:33.087Z,20.94
2022-08-18T13:30:30.305Z,20.96
2022-08-18T13:33:00.433Z,21.01
2022-08-18T13:35:37.997Z,21.09
2022-08-18T13:38:15.660Z,21.11
2022-08-18T13:40:48.938Z,21.09
2022-08-18T13:43:17.929Z,21.10
2022-08-18T13:45:53.063Z,21.12
2022-08-18T13:48:25.688Z,21.11
2022-08-18T13:50:55.960Z,21.09
2022-08-18T13:53:26.336Z,21.07
2022-08-18T13:55:59.167Z,21.03
2022-08-18T13:58:28.197Z,20.96
2022-08-18T14:01:16.257Z,20.91
2022-08-18T14:03:48.171Z,20.92
2022-08-18T14:06:22.796Z,20.90
2022-08-18T14:08:52.829Z,20.85
2022-08-18T14:11:27.628Z,20.79
2022-08-18T14:14:01.153Z,20.83
2022-08-18T14:16:30.843Z,20.83
2022-08-18T14:19:17.658Z,20.88
2022-08-18T14:22:06.070Z,20.82
2022-08-18T14:24:52.677Z,20.90
2022-08-18T14:27:28.347Z,20.92
2022-08-18T14:30:05.231Z,20.95
2022-08-18T14:32:36.400Z,20.93
2022-08-18T14:35:32.090Z,20.92
2022-08-18T14:37:56.357Z,20.91
2022-08-18T14:40:25.218Z,20.92
2022-08-18T14:42:55.596Z,20.97
2022-08-18T14:45:34.018Z,20.95
2022-08-18T14:48:06.609Z,20.96
2022-08-18T14:50:36.882Z,20.96
2022-08-18T14:53:05.197Z,20.93
2022-08-18T14:55:34.095Z,20.95
2022-08-18T14:58:03.610Z,20.88
2022-08-18T15:00:35.582Z,20.79
2022-08-18T15:03:22.142Z,20.81
2022-08-18T15:06:00.469Z,20.82
2022-08-18T15:08:29.155Z,20.85
2022-08-18T15:10:58.531Z,20.91
2022-08-18T15:13:28.766Z,20.90
2022-08-18T15:16:01.759Z,20.88
2022-08-18T15:18:31.378Z,20.88
2022-08-18T15:21:35.816Z,20.82
2022-08-18T15:24:24.006Z,20.90
2022-08-18T15:26:56.757Z,21.04
2022-08-18T15:29:29.442Z,21.09
2022-08-18T15:32:02.058Z,21.12
2022-08-18T15:34:46.984Z,21.24
2022-08-18T15:37:19.948Z,21.21
2022-08-18T15:39:55.605Z,21.25
2022-08-18T15:42:24.523Z,21.27
2022-08-18T15:44:54.354Z,21.25
2022-08-18T15:47:25.160Z,21.26
2022-08-18T15:49:54.813Z,21.23
2022-08-18T15:52:25.983Z,21.14
2022-08-18T15:54:58.342Z,21.08
2022-08-18T15:57:36.013Z,20.98
2022-08-18T16:00:12.168Z,20.89
2022-08-18T16:02:44.617Z,20.90
2022-08-18T16:05:16.997Z,20.92
2022-08-18T16:07:47.679Z,20.84
2022-08-18T16:10:17.984Z,20.89
2022-08-18T16:12:46.553Z,21.02
2022-08-18T16:15:21.081Z,21.15
2022-08-18T16:17:51.605Z,21.16
2022-08-18T16:20:20.721Z,21.27
2022-08-18T16:22:49.385Z,21.29
2022-08-18T16:25:18.087Z,21.43
2022-08-18T16:27:47.902Z,21.44
2022-08-18T16:30:20.155Z,21.43
2022-08-18T16:32:48.618Z,21.30
2022-08-18T16:35:18.413Z,21.18
2022-08-18T16:37:47.765Z,21.17
2022-08-18T16:40:15.966Z,21.20
2022-08-18T16:42:44.203Z,21.12
2022-08-18T16:45:13.572Z,21.11
2022-08-18T16:47:42.967Z,21.00
2022-08-18T16:50:13.641Z,20.92
2022-08-18T16:52:42.217Z,20.93
2022-08-18T16:55:12.819Z,20.98
2022-08-18T16:57:58.856Z,20.99
2022-08-18T17:00:45.273Z,20.87
2022-08-18T17:03:32.239Z,20.85
2022-08-18T17:06:01.839Z,20.78
2022-08-18T17:08:33.523Z,20.72
2022-08-18T17:11:01.989Z,20.65
2022-08-18T17:13:30.385Z,20.62
2022-08-18T17:15:58.293Z,20.62
2022-08-18T17:18:28.720Z,20.64
2022-08-18T17:20:56.674Z,20.58
2022-08-18T17:23:24.817Z,20.61
2022-08-18T17:25:52.992Z,20.54
2022-08-18T17:28:26.398Z,20.55
2022-08-18T17:30:54.615Z,20.56
2022-08-18T17:33:26.536Z,20.58
2022-08-18T17:35:58.580Z,20.57
2022-08-18T17:38:40.409Z,20.53
2022-08-18T17:41:08.754Z,20.46
2022-08-18T17:46:18.097Z,20.34
2022-08-18T17:48:52.514Z,20.31
2022-08-18T17:51:34.267Z,20.24
2022-08-18T17:54:16.412Z,20.16
2022-08-18T17:56:52.571Z,20.12
2022-08-18T17:59:46.123Z,20.13
2022-08-18T18:02:29.746Z,20.09
2022-08-18T18:04:59.742Z,20.00
2022-08-18T18:07:32.840Z,19.97
2022-08-18T18:10:03.451Z,19.93
2022-08-18T18:12:34.651Z,19.90
2022-08-18T18:15:05.929Z,19.91
2022-08-18T18:17:37.715Z,19.91
2022-08-18T18:20:16.031Z,19.92
2022-08-18T18:22:46.165Z,19.91
2022-08-18T18:25:30.226Z,19.89
2022-08-18T18:28:02.926Z,19.83
2022-08-18T18:30:32.693Z,19.82
2022-08-18T18:33:03.602Z,19.84
2022-08-18T18:35:33.965Z,19.82
2022-08-18T18:38:06.525Z,19.84
2022-08-18T18:40:38.778Z,19.87
2022-08-18T18:43:24.928Z,19.88
2022-08-18T18:46:29.926Z,19.86
2022-08-18T18:49:14.651Z,19.80
2022-08-18T18:51:54.697Z,19.76
2022-08-18T18:54:50.087Z,19.76
2022-08-18T18:57:32.104Z,19.73
2022-08-18T19:00:11.660Z,19.68
2022-08-18T19:02:48.914Z,19.63
2022-08-18T19:05:23.896Z,19.62
2022-08-18T19:08:00.680Z,19.60
2022-08-18T19:10:37.333Z,19.57
2022-08-18T19:13:12.530Z,19.57
2022-08-18T19:16:05.303Z,19.55
2022-08-18T19:18:38.060Z,19.56
2022-08-18T19:22:04.050Z,19.59
2022-08-18T19:24:03.533Z,19.54
2022-08-18T19:26:40.495Z,19.50
2022-08-18T19:29:15.545Z,19.51
2022-08-18T19:31:48.705Z,19.47
2022-08-18T19:34:22.819Z,19.49
2022-08-18T19:37:02.943Z,19.48
2022-08-18T19:39:38.471Z,19.47
2022-08-18T19:42:15.964Z,19.47
2022-08-18T19:45:06.522Z,19.42
2022-08-18T19:47:42.932Z,19.39
2022-08-18T19:50:19.027Z,19.35
2022-08-18T19:53:02.614Z,19.30
2022-08-18T19:55:44.158Z,19.26
2022-08-18T19:58:33.941Z,19.25
2022-08-18T20:01:05.750Z,19.22
2022-08-18T20:03:58.550Z,19.21
2022-08-18T20:07:01.428Z,19.20
2022-08-18T20:09:58.991Z,19.19
2022-08-18T20:12:45.334Z,19.17
2022-08-18T20:15:17.854Z,19.16
2022-08-18T20:18:07.815Z,19.13
2022-08-18T20:20:38.703Z,19.13
2022-08-18T20:23:31.854Z,19.13
2022-08-18T20:25:59.859Z,19.14
2022-08-18T20:28:40.508Z,19.13
2022-08-18T20:31:16.355Z,19.13
2022-08-18T20:34:11.084Z,19.15
2022-08-18T20:36:43.769Z,19.15
2022-08-18T20:39:34.993Z,19.15
2022-08-18T20:42:04.144Z,19.15
2022-08-18T20:44:53.320Z,19.16
2022-08-18T20:47:42.089Z,19.18
2022-08-18T20:50:57.466Z,19.14
2022-08-18T20:54:04.124Z,19.10
2022-08-18T20:56:46.438Z,19.10
2022-08-18T20:59:20.294Z,19.09
2022-08-18T21:02:00.818Z,19.08
2022-08-18T21:04:56.357Z,19.05
2022-08-18T21:07:37.097Z,19.03
2022-08-18T21:10:13.059Z,19.05
2022-08-18T21:12:52.653Z,19.02
2022-08-18T21:15:24.420Z,19.01
2022-08-18T21:17:58.887Z,19.01
2022-08-18T21:20:29.773Z,18.99
2022-08-18T21:23:06.975Z,18.98
2022-08-18T21:25:35.450Z,18.99
2022-08-18T21:28:06.969Z,18.99
2022-08-18T21:30:35.079Z,18.96
2022-08-18T21:33:20.235Z,18.97
2022-08-18T21:35:51.655Z,18.95
2022-08-18T21:38:27.614Z,18.92
2022-08-18T21:40:59.196Z,18.91
2022-08-18T21:43:49.184Z,18.87
2022-08-18T21:46:25.965Z,18.84
2022-08-18T21:48:56.279Z,18.83
2022-08-18T21:51:28.775Z,18.82
2022-08-18T21:53:57.049Z,18.80
2022-08-18T21:56:27.851Z,18.80
2022-08-18T21:59:08.042Z,18.82
2022-08-18T22:01:37.806Z,18.78
2022-08-18T22:04:18.313Z,18.77
2022-08-18T22:06:53.803Z,18.80
2022-08-18T22:09:41.988Z,18.80
2022-08-18T22:12:48.827Z,18.80
2022-08-18T22:15:20.759Z,18.78
2022-08-18T22:17:55.593Z,18.77
2022-08-18T22:20:41.877Z,18.77
2022-08-18T22:23:41.655Z,18.76
2022-08-18T22:26:13.623Z,18.76
2022-08-18T22:28:54.995Z,18.74
2022-08-18T22:31:24.090Z,18.76
2022-08-18T22:33:54.221Z,18.73
2022-08-18T22:36:26.609Z,18.77
2022-08-18T22:38:56.303Z,18.78
2022-08-18T22:41:25.644Z,18.78
2022-08-18T22:43:55.457Z,18.75
2022-08-18T22:46:25.177Z,18.77
2022-08-18T22:48:54.217Z,18.76
2022-08-18T22:51:24.470Z,18.75
2022-08-18T22:53:52.989Z,18.75
2022-08-18T22:56:34.373Z,18.75
2022-08-18T22:59:16.005Z,18.76
2022-08-18T23:01:53.453Z,18.75
2022-08-18T23:04:25.474Z,18.74
2022-08-18T23:06:53.903Z,18.74
2022-08-18T23:09:25.304Z,18.75
2022-08-18T23:11:57.414Z,18.76
2022-08-18T23:14:26.035Z,18.76
2022-08-18T23:16:54.124Z,18.78
2022-08-18T23:19:22.857Z,18.79
2022-08-18T23:21:51.750Z,18.78
2022-08-18T23:24:21.340Z,18.78
2022-08-18T23:26:49.838Z,18.79
2022-08-18T23:29:20.014Z,18.81
2022-08-18T23:31:48.991Z,18.82
2022-08-18T23:34:18.997Z,18.82
2022-08-18T23:36:52.483Z,18.80
2022-08-18T23:39:20.438Z,18.78
2022-08-18T23:41:48.455Z,18.77
2022-08-18T23:44:18.790Z,18.75
2022-08-18T23:46:47.040Z,18.73
2022-08-18T23:49:15.765Z,18.73
2022-08-18T23:51:45.396Z,18.75
2022-08-18T23:54:17.722Z,18.77
2022-08-18T23:56:46.814Z,18.77
2022-08-18T23:59:16.439Z,18.78
